createdAt,value
2023-03-23T15:59:45.855Z,31.54
2023-03-23T16:02:50.117Z,31.86
2023-03-23T16:05:52.396Z,32.08
2023-03-23T16:08:55.805Z,32.18
2023-03-23T16:11:58.306Z,32.09
2023-03-23T16:15:00.785Z,32.58
2023-03-23T16:18:03.231Z,33.00
2023-03-23T16:21:05.780Z,32.33
2023-03-23T16:24:08.850Z,33.15
2023-03-23T16:27:14.048Z,33.36
2023-03-23T16:30:19.501Z,34.02
2023-03-23T16:33:22.488Z,34.00
2023-03-23T16:36:24.830Z,33.48
2023-03-23T16:39:27.319Z,34.08
2023-03-23T16:42:29.818Z,34.15
2023-03-23T16:45:32.114Z,33.88
2023-03-23T16:48:34.416Z,34.05
2023-03-23T16:51:36.824Z,34.88
2023-03-23T16:54:39.154Z,35.12
2023-03-23T16:57:43.334Z,34.80
2023-03-23T17:00:48.927Z,34.98
2023-03-23T17:03:51.318Z,35.29
2023-03-23T17:06:54.323Z,35.57
2023-03-23T17:09:56.642Z,35.56
2023-03-23T17:12:59.497Z,36.19
2023-03-23T17:16:01.785Z,36.52
2023-03-23T17:19:04.464Z,37.40
2023-03-23T17:22:06.687Z,37.59
2023-03-23T17:25:10.101Z,37.28
2023-03-23T17:28:12.382Z,38.97
2023-03-23T17:31:14.767Z,38.64
2023-03-23T17:34:18.745Z,38.63
2023-03-23T17:37:22.008Z,38.10
2023-03-23T17:40:24.313Z,38.68
2023-03-23T17:43:26.593Z,39.01
2023-03-23T17:46:28.860Z,39.06
2023-03-23T17:49:31.248Z,39.34
2023-03-23T17:52:33.635Z,39.08
2023-03-23T17:55:36.243Z,38.35
2023-03-23T17:58:38.542Z,38.76
2023-03-23T18:01:40.931Z,38.93
2023-03-23T18:04:43.299Z,38.47
2023-03-23T18:07:45.888Z,39.08
2023-03-23T18:10:49.235Z,38.55
2023-03-23T18:13:51.547Z,38.97
2023-03-23T18:16:53.994Z,38.57
2023-03-23T18:19:56.500Z,39.14
2023-03-23T18:22:58.814Z,39.24
2023-03-23T18:26:05.580Z,38.79
2023-03-23T18:29:07.832Z,39.61
2023-03-23T18:32:10.128Z,38.64
2023-03-23T18:35:12.724Z,38.25
2023-03-23T18:38:15.135Z,38.11
2023-03-23T18:41:18.323Z,38.11
2023-03-23T18:44:20.699Z,38.31
2023-03-23T18:47:23.061Z,38.15
2023-03-23T18:50:25.326Z,38.79
2023-03-23T18:53:28.238Z,38.60
2023-03-23T18:56:30.575Z,37.99
2023-03-23T18:59:34.591Z,38.21
2023-03-23T19:02:39.399Z,37.66
2023-03-23T19:05:42.590Z,38.03
2023-03-23T19:08:45.888Z,38.07
2023-03-23T19:11:48.261Z,38.36
2023-03-23T19:14:51.700Z,38.32
2023-03-23T19:17:56.249Z,38.58
2023-03-23T19:24:04.709Z,38.80
2023-03-23T19:27:08.135Z,38.29
2023-03-23T19:30:10.955Z,38.43
2023-03-23T19:33:13.904Z,38.68
2023-03-23T19:36:16.849Z,39.16
2023-03-23T19:39:19.236Z,39.36
2023-03-23T19:42:21.606Z,39.12
2023-03-23T19:45:23.865Z,39.28
2023-03-23T19:48:26.250Z,39.46
2023-03-23T19:51:28.712Z,38.94
2023-03-23T19:54:31.581Z,39.38
2023-03-23T19:57:35.419Z,39.49
2023-03-23T20:00:38.131Z,39.78
2023-03-23T20:07:11.286Z,40.01
2023-03-23T20:10:25.858Z,39.94
2023-03-23T20:13:28.359Z,40.03
2023-03-23T20:16:31.334Z,40.30
2023-03-23T20:22:36.762Z,40.20
2023-03-23T20:25:39.038Z,40.08
2023-03-23T20:28:42.692Z,41.19
2023-03-23T20:31:46.570Z,40.52
2023-03-23T20:34:49.506Z,41.15
2023-03-23T20:37:52.783Z,41.29
2023-03-23T20:40:56.967Z,41.81
2023-03-23T20:43:59.785Z,41.99
2023-03-23T20:47:03.260Z,42.63
2023-03-23T20:50:07.357Z,42.70
2023-03-23T20:53:09.703Z,42.41
2023-03-23T20:56:12.059Z,42.03
2023-03-23T20:59:15.490Z,42.29
2023-03-23T21:02:19.026Z,41.84
2023-03-23T21:05:21.514Z,42.50
2023-03-23T21:08:23.915Z,42.69
2023-03-23T21:11:27.303Z,42.13
2023-03-23T21:14:29.532Z,42.20
2023-03-23T21:17:31.840Z,42.36
2023-03-23T21:20:34.871Z,42.92
2023-03-23T21:23:38.398Z,43.66
2023-03-23T21:26:40.753Z,43.58
2023-03-23T21:29:43.011Z,43.93
2023-03-23T21:32:45.310Z,44.29
2023-03-23T21:35:47.650Z,44.02
2023-03-23T21:38:50.250Z,43.39
2023-03-23T21:41:52.530Z,44.16
2023-03-23T21:44:56.592Z,44.12
2023-03-23T21:48:00.094Z,44.09
2023-03-23T21:51:09.939Z,42.94
2023-03-23T21:54:12.589Z,43.61
2023-03-23T21:57:15.035Z,43.76
2023-03-23T22:00:18.875Z,43.44
2023-03-23T22:03:25.521Z,44.38
2023-03-23T22:06:28.581Z,44.66
2023-03-23T22:09:30.985Z,44.53
2023-03-23T22:12:33.309Z,44.46
2023-03-23T22:15:35.699Z,44.23
2023-03-23T22:18:38.969Z,44.30
2023-03-23T22:21:41.862Z,43.77
2023-03-23T22:24:44.063Z,44.75
2023-03-23T22:27:47.052Z,44.60
2023-03-23T22:30:49.307Z,43.88
2023-03-23T22:33:56.048Z,45.28
2023-03-23T22:36:58.535Z,44.45
2023-03-23T22:40:00.822Z,43.47
2023-03-23T22:43:03.764Z,43.35
2023-03-23T22:46:06.500Z,43.92
2023-03-23T22:49:08.936Z,43.46
2023-03-23T22:52:11.231Z,43.06
2023-03-23T22:55:13.560Z,43.19
2023-03-23T22:58:16.836Z,44.18
2023-03-23T23:01:21.020Z,43.85
2023-03-23T23:04:23.777Z,44.76
2023-03-23T23:07:26.271Z,44.79
2023-03-23T23:10:28.649Z,44.69
2023-03-23T23:13:33.136Z,44.85
2023-03-23T23:16:35.654Z,44.68
2023-03-23T23:19:38.093Z,44.44
2023-03-23T23:22:40.969Z,44.93
2023-03-23T23:25:44.075Z,44.41
2023-03-23T23:28:46.772Z,45.18
2023-03-23T23:31:49.058Z,45.61
2023-03-23T23:34:53.042Z,45.04
2023-03-23T23:37:55.419Z,44.71
2023-03-23T23:40:58.438Z,44.67
2023-03-23T23:44:00.716Z,44.71
2023-03-23T23:47:03.207Z,44.40
2023-03-23T23:50:07.371Z,44.56
2023-03-23T23:53:10.954Z,44.43
2023-03-23T23:56:14.187Z,44.56
2023-03-23T23:59:17.117Z,44.61
